createdAt,value
2018-06-29T00:00:32.616Z,17.10
2018-06-29T00:03:01.113Z,17.01
2018-06-29T00:05:29.273Z,16.98
2018-06-29T00:07:57.548Z,16.98
2018-06-29T00:10:26.297Z,17.02
2018-06-29T00:12:54.974Z,17.03
2018-06-29T00:15:23.605Z,17.07
2018-06-29T00:17:51.988Z,17.12
2018-06-29T00:20:20.251Z,17.16
2018-06-29T00:22:48.629Z,17.22
2018-06-29T00:25:16.775Z,17.22
2018-06-29T00:27:44.868Z,17.24
2018-06-29T00:30:13.451Z,17.20
2018-06-29T00:32:41.533Z,17.06
2018-06-29T00:35:09.785Z,17.08
2018-06-29T00:37:38.083Z,16.96
2018-06-29T00:40:06.458Z,17.01
2018-06-29T00:42:34.729Z,16.96
2018-06-29T00:45:02.898Z,16.97
2018-06-29T00:47:31.282Z,17.01
2018-06-29T00:49:59.449Z,16.94
2018-06-29T00:52:27.635Z,16.92
2018-06-29T00:54:56.005Z,17.01
2018-06-29T00:57:24.397Z,17.09
2018-06-29T00:59:52.567Z,17.06
2018-06-29T01:02:20.821Z,17.18
2018-06-29T01:04:48.998Z,17.20
2018-06-29T01:07:17.495Z,17.13
2018-06-29T01:09:45.721Z,17.10
2018-06-29T01:12:13.840Z,17.08
2018-06-29T01:14:42.089Z,17.09
2018-06-29T01:17:10.374Z,17.07
2018-06-29T01:19:38.558Z,17.09
2018-06-29T01:22:06.938Z,17.08
2018-06-29T01:24:35.201Z,17.12
2018-06-29T01:27:03.681Z,17.11
2018-06-29T01:29:31.971Z,17.17
2018-06-29T01:32:00.237Z,17.28
2018-06-29T01:34:28.812Z,17.21
2018-06-29T01:36:57.151Z,17.25
2018-06-29T01:39:25.280Z,17.21
2018-06-29T01:41:53.532Z,17.23
2018-06-29T01:44:21.823Z,17.07
2018-06-29T01:46:50.067Z,17.14
2018-06-29T01:49:18.362Z,17.16
2018-06-29T01:51:46.242Z,17.07
2018-06-29T01:54:14.723Z,17.10
2018-06-29T01:56:42.981Z,17.09
2018-06-29T01:59:11.277Z,17.12
2018-06-29T02:01:39.543Z,17.09
2018-06-29T02:04:07.817Z,17.10
2018-06-29T02:06:36.100Z,17.03
2018-06-29T02:09:06.270Z,17.03
2018-06-29T02:11:34.585Z,17.07
2018-06-29T02:14:02.976Z,17.08
2018-06-29T02:16:31.241Z,17.22
2018-06-29T02:18:59.408Z,17.38
2018-06-29T02:21:27.690Z,17.43
2018-06-29T02:23:55.955Z,17.42
2018-06-29T02:26:24.164Z,17.37
2018-06-29T02:28:52.396Z,17.15
2018-06-29T02:31:20.383Z,17.15
2018-06-29T02:33:48.645Z,17.10
2018-06-29T02:36:16.831Z,17.22
2018-06-29T02:38:45.098Z,17.28
2018-06-29T02:41:13.279Z,17.27
2018-06-29T02:43:41.560Z,17.26
2018-06-29T02:46:09.838Z,17.16
2018-06-29T02:48:38.216Z,17.03
2018-06-29T02:51:06.392Z,17.06
2018-06-29T02:53:34.785Z,17.11
2018-06-29T02:56:02.931Z,17.08
2018-06-29T02:58:31.197Z,17.21
2018-06-29T03:00:59.500Z,17.32
2018-06-29T03:03:27.859Z,17.38
2018-06-29T03:05:56.140Z,17.34
2018-06-29T03:08:24.402Z,17.35
2018-06-29T03:10:52.288Z,17.34
2018-06-29T03:13:20.659Z,17.39
2018-06-29T03:15:48.947Z,17.30
2018-06-29T03:18:17.297Z,17.25
2018-06-29T03:20:45.585Z,17.20
2018-06-29T03:23:13.874Z,17.21
2018-06-29T03:25:42.226Z,17.05
2018-06-29T03:28:10.510Z,17.21
2018-06-29T03:30:38.718Z,17.29
2018-06-29T03:33:07.241Z,17.39
2018-06-29T03:35:35.344Z,17.46
2018-06-29T03:38:03.610Z,17.31
2018-06-29T03:40:32.073Z,17.37
2018-06-29T03:43:00.353Z,17.49
2018-06-29T03:45:28.517Z,17.56
2018-06-29T03:47:56.914Z,17.49
2018-06-29T03:50:25.091Z,17.44
2018-06-29T03:52:53.543Z,17.54
2018-06-29T03:55:21.733Z,17.51
2018-06-29T04:21:23.768Z,17.57
2018-06-29T04:23:58.198Z,17.59
2018-06-29T04:26:32.383Z,17.60
2018-06-29T04:29:07.090Z,17.63
2018-06-29T04:31:41.610Z,17.56
2018-06-29T04:34:16.017Z,17.48
2018-06-29T04:36:49.998Z,17.40
2018-06-29T04:39:24.055Z,17.47
2018-06-29T04:41:58.037Z,17.64
2018-06-29T04:44:32.013Z,17.61
2018-06-29T04:47:06.449Z,17.56
2018-06-29T04:49:40.697Z,17.62
2018-06-29T04:52:14.744Z,17.74
2018-06-29T04:54:49.140Z,17.84
2018-06-29T04:57:23.377Z,17.91
2018-06-29T04:59:57.387Z,17.98
2018-06-29T05:02:31.562Z,18.34
2018-06-29T05:05:05.586Z,18.40
2018-06-29T05:07:39.998Z,18.35
2018-06-29T05:10:14.506Z,18.23
2018-06-29T05:12:42.785Z,18.44
2018-06-29T05:15:11.228Z,18.52
2018-06-29T05:17:39.070Z,18.46
2018-06-29T05:20:06.965Z,18.17
2018-06-29T05:22:35.161Z,18.15
2018-06-29T05:25:03.493Z,18.14
2018-06-29T05:27:31.725Z,18.21
2018-06-29T05:29:59.903Z,18.20
2018-06-29T05:32:28.291Z,18.53
2018-06-29T05:34:56.642Z,18.80
2018-06-29T05:37:24.868Z,19.13
2018-06-29T05:39:53.181Z,19.23
2018-06-29T05:42:21.689Z,18.97
2018-06-29T05:44:49.971Z,18.95
2018-06-29T05:47:18.370Z,19.15
2018-06-29T05:49:46.345Z,19.38
2018-06-29T05:52:14.588Z,19.59
2018-06-29T05:54:42.853Z,19.49
2018-06-29T05:57:11.044Z,19.49
2018-06-29T05:59:39.330Z,19.32
2018-06-29T06:02:08.146Z,19.19
2018-06-29T06:04:36.373Z,19.22
2018-06-29T06:07:04.964Z,19.24
2018-06-29T06:09:33.336Z,19.32
2018-06-29T06:12:01.711Z,19.58
2018-06-29T06:14:29.884Z,19.44
2018-06-29T06:16:58.165Z,19.28
2018-06-29T06:19:37.236Z,19.29
2018-06-29T06:22:05.549Z,19.35
2018-06-29T06:24:33.936Z,19.44
2018-06-29T06:27:02.282Z,19.36
2018-06-29T06:29:30.382Z,19.35
2018-06-29T06:31:58.657Z,19.54
2018-06-29T06:34:27.048Z,19.81
2018-06-29T06:36:55.309Z,19.98
2018-06-29T06:39:23.586Z,19.98
2018-06-29T06:41:51.970Z,19.77
2018-06-29T06:44:20.247Z,19.75
2018-06-29T06:46:48.621Z,19.74
2018-06-29T06:49:16.905Z,19.88
2018-06-29T06:51:45.284Z,19.83
2018-06-29T06:54:13.461Z,19.91
2018-06-29T06:56:41.728Z,19.92
2018-06-29T06:59:09.993Z,19.95
2018-06-29T07:01:38.265Z,20.02
2018-06-29T07:04:06.559Z,19.92
2018-06-29T07:06:34.921Z,19.95
2018-06-29T07:09:03.291Z,20.08
2018-06-29T07:11:31.683Z,19.88
2018-06-29T07:13:59.560Z,19.97
2018-06-29T07:16:27.916Z,20.03
2018-06-29T07:18:56.207Z,20.24
2018-06-29T07:21:24.089Z,20.44
2018-06-29T07:23:52.224Z,20.67
2018-06-29T07:26:20.607Z,20.90
2018-06-29T07:28:48.520Z,20.78
2018-06-29T07:31:16.762Z,20.58
2018-06-29T07:33:45.129Z,20.70
2018-06-29T07:36:13.514Z,20.85
2018-06-29T07:38:41.799Z,20.89
2018-06-29T07:41:10.158Z,20.87
2018-06-29T07:43:38.333Z,21.10
2018-06-29T07:46:07.117Z,21.22
2018-06-29T07:48:35.506Z,21.34
2018-06-29T07:51:03.977Z,21.27
2018-06-29T07:53:32.362Z,21.24
2018-06-29T07:56:00.643Z,21.03
2018-06-29T07:58:29.005Z,20.80
2018-06-29T08:01:01.973Z,20.88
2018-06-29T08:03:31.271Z,20.90
2018-06-29T08:05:59.296Z,20.94
2018-06-29T08:08:28.097Z,21.01
2018-06-29T08:10:56.432Z,21.23
2018-06-29T08:13:25.257Z,21.13
2018-06-29T08:15:53.642Z,21.07
2018-06-29T08:18:22.065Z,21.22
2018-06-29T08:20:50.443Z,21.12
2018-06-29T08:23:18.848Z,21.21
2018-06-29T08:25:47.202Z,21.40
2018-06-29T08:28:15.472Z,21.46
2018-06-29T08:30:43.753Z,21.36
2018-06-29T08:33:12.025Z,21.22
2018-06-29T08:35:40.309Z,21.18
2018-06-29T08:38:08.786Z,21.35
2018-06-29T08:40:37.157Z,21.28
2018-06-29T08:43:05.436Z,21.09
2018-06-29T08:45:33.925Z,20.82
2018-06-29T08:48:02.189Z,20.54
2018-06-29T08:50:30.489Z,20.58
2018-06-29T08:52:58.297Z,20.74
2018-06-29T08:55:26.509Z,20.73
2018-06-29T08:57:54.680Z,20.86
2018-06-29T09:00:22.953Z,20.78
2018-06-29T09:02:51.324Z,20.79
2018-06-29T09:05:19.708Z,20.96
2018-06-29T09:07:47.985Z,21.16
2018-06-29T09:10:16.261Z,21.35
2018-06-29T09:12:44.638Z,21.48
2018-06-29T09:15:12.914Z,21.47
2018-06-29T09:17:41.088Z,21.38
2018-06-29T09:20:09.360Z,21.30
2018-06-29T09:22:37.282Z,21.18
2018-06-29T09:25:05.394Z,21.19
2018-06-29T09:27:33.757Z,21.25
2018-06-29T09:30:01.957Z,21.35
2018-06-29T09:32:30.122Z,21.31
2018-06-29T09:34:58.397Z,21.31
2018-06-29T09:37:26.789Z,21.38
2018-06-29T09:39:54.935Z,21.43
2018-06-29T09:42:23.142Z,21.41
2018-06-29T09:44:51.354Z,21.39
2018-06-29T09:47:19.772Z,21.41
2018-06-29T09:49:47.918Z,21.46
2018-06-29T09:52:16.125Z,21.49
2018-06-29T09:54:44.601Z,21.57
2018-06-29T09:57:12.878Z,21.72
2018-06-29T09:59:41.253Z,21.84
2018-06-29T10:02:09.519Z,21.90
2018-06-29T10:04:37.805Z,22.00
2018-06-29T10:07:06.173Z,22.07
2018-06-29T10:09:34.348Z,22.14
2018-06-29T10:12:02.649Z,22.17
2018-06-29T10:14:30.849Z,22.09
2018-06-29T10:16:58.776Z,22.03
2018-06-29T10:19:27.085Z,21.98
2018-06-29T10:21:55.328Z,21.96
2018-06-29T10:24:23.561Z,22.03
2018-06-29T10:26:51.425Z,22.03
2018-06-29T10:29:19.293Z,22.13
2018-06-29T10:31:47.364Z,22.20
2018-06-29T10:34:15.549Z,22.41
2018-06-29T10:36:43.898Z,22.38
2018-06-29T10:39:15.520Z,22.40
2018-06-29T10:41:44.290Z,22.22
2018-06-29T10:44:12.560Z,22.16
2018-06-29T10:46:40.997Z,22.13
2018-06-29T10:49:09.160Z,22.03
2018-06-29T10:51:37.596Z,22.09
2018-06-29T10:54:05.455Z,22.15
2018-06-29T10:56:33.733Z,22.32
2018-06-29T10:59:02.217Z,22.58
2018-06-29T11:01:30.177Z,22.59
2018-06-29T11:03:58.465Z,22.53
2018-06-29T11:06:26.641Z,22.56
2018-06-29T11:08:54.509Z,22.50
2018-06-29T11:11:22.885Z,22.54
2018-06-29T11:13:51.032Z,22.67
2018-06-29T11:16:18.833Z,22.68
2018-06-29T11:18:47.098Z,22.82
2018-06-29T11:21:15.253Z,22.93
2018-06-29T11:23:43.533Z,22.89
2018-06-29T11:26:11.809Z,22.89
2018-06-29T11:28:40.092Z,22.96
2018-06-29T11:31:08.376Z,22.99
2018-06-29T11:33:36.536Z,23.00
2018-06-29T11:36:05.025Z,23.15
2018-06-29T11:38:33.281Z,23.14
2018-06-29T11:41:01.768Z,23.11
2018-06-29T11:43:30.249Z,22.99
2018-06-29T11:45:58.514Z,22.89
2018-06-29T11:48:26.805Z,22.96
2018-06-29T11:50:54.963Z,23.11
2018-06-29T11:53:23.258Z,23.08
2018-06-29T11:55:51.524Z,23.13
2018-06-29T11:58:19.914Z,23.12
2018-06-29T12:00:48.297Z,23.12
2018-06-29T12:03:16.557Z,23.16
2018-06-29T12:05:44.829Z,23.15
2018-06-29T12:08:13.105Z,23.09
2018-06-29T12:10:40.941Z,23.12
2018-06-29T12:13:09.144Z,23.17
2018-06-29T12:15:37.430Z,23.16
2018-06-29T12:18:05.797Z,23.21
2018-06-29T12:20:34.082Z,23.28
2018-06-29T12:23:02.349Z,23.36
2018-06-29T12:25:30.700Z,23.39
2018-06-29T12:27:59.068Z,23.56
2018-06-29T12:30:27.490Z,23.55
2018-06-29T12:32:55.662Z,23.48
2018-06-29T12:35:23.937Z,23.52
2018-06-29T12:37:52.430Z,23.51
2018-06-29T12:40:20.890Z,23.41
2018-06-29T12:42:49.270Z,23.43
2018-06-29T12:45:17.548Z,23.40
2018-06-29T12:47:45.721Z,23.52
2018-06-29T12:50:14.001Z,23.58
2018-06-29T12:52:42.385Z,23.60
2018-06-29T12:55:10.754Z,23.56
2018-06-29T12:57:39.121Z,23.62
2018-06-29T13:00:07.606Z,23.74
2018-06-29T13:02:35.881Z,23.76
2018-06-29T13:05:04.370Z,23.58
2018-06-29T13:07:32.634Z,23.55
2018-06-29T13:10:00.809Z,23.52
2018-06-29T13:12:29.298Z,23.48
2018-06-29T13:14:57.461Z,23.44
2018-06-29T13:17:25.839Z,23.40
2018-06-29T13:19:54.121Z,23.38
2018-06-29T13:22:22.593Z,23.39
2018-06-29T13:24:50.802Z,23.37
2018-06-29T13:27:19.245Z,23.35
2018-06-29T13:29:47.520Z,23.24
2018-06-29T13:32:15.735Z,23.23
2018-06-29T13:34:44.080Z,23.36
2018-06-29T13:37:12.482Z,23.40
2018-06-29T13:39:40.732Z,23.27
2018-06-29T13:42:09.130Z,23.25
2018-06-29T13:44:37.386Z,23.29
2018-06-29T13:47:05.663Z,23.26
2018-06-29T13:49:33.738Z,23.37
2018-06-29T13:52:02.014Z,23.40
2018-06-29T13:54:30.391Z,23.44
2018-06-29T13:56:58.531Z,23.51
2018-06-29T13:59:26.817Z,23.34
2018-06-29T14:01:55.023Z,23.40
2018-06-29T14:04:23.282Z,23.34
2018-06-29T14:06:51.654Z,23.37
2018-06-29T14:09:20.038Z,23.45
2018-06-29T14:11:48.295Z,23.48
2018-06-29T14:14:16.585Z,23.40
2018-06-29T14:16:44.874Z,23.38
2018-06-29T14:19:13.233Z,23.49
2018-06-29T14:21:41.420Z,23.56
2018-06-29T14:24:09.683Z,23.57
2018-06-29T14:26:37.961Z,23.49
2018-06-29T14:29:06.334Z,23.51
2018-06-29T14:31:34.626Z,23.54
2018-06-29T14:34:03.001Z,23.55
2018-06-29T14:36:31.270Z,23.49
2018-06-29T14:38:59.528Z,23.40
2018-06-29T14:41:27.917Z,23.47
2018-06-29T14:43:56.199Z,23.47
2018-06-29T14:46:24.689Z,23.49
2018-06-29T14:48:52.847Z,23.39
2018-06-29T14:51:21.026Z,23.39
2018-06-29T14:53:49.190Z,23.38
2018-06-29T14:56:17.679Z,23.30
2018-06-29T14:58:45.596Z,23.30
2018-06-29T15:01:13.709Z,23.20
2018-06-29T15:03:42.102Z,23.25
2018-06-29T15:06:10.352Z,23.19
2018-06-29T15:08:38.541Z,23.29
2018-06-29T15:11:07.013Z,23.37
2018-06-29T15:13:35.289Z,23.40
2018-06-29T15:16:03.567Z,23.45
2018-06-29T15:18:31.841Z,23.54
2018-06-29T15:21:00.159Z,23.50
2018-06-29T15:23:28.221Z,23.52
2018-06-29T15:25:56.778Z,23.59
2018-06-29T15:28:24.634Z,23.62
2018-06-29T15:30:52.470Z,23.52
2018-06-29T15:33:20.316Z,23.45
2018-06-29T15:35:48.125Z,23.43
2018-06-29T15:38:15.953Z,23.46
2018-06-29T15:40:44.139Z,23.48
2018-06-29T15:43:12.956Z,23.43
2018-06-29T15:45:41.239Z,23.34
2018-06-29T15:48:09.514Z,23.32
2018-06-29T15:50:37.781Z,23.39
2018-06-29T15:53:06.637Z,23.47
2018-06-29T15:55:34.850Z,23.38
2018-06-29T15:58:03.230Z,23.30
2018-06-29T16:00:31.498Z,23.26
2018-06-29T16:02:59.881Z,23.13
2018-06-29T16:05:28.264Z,23.16
2018-06-29T16:07:56.524Z,23.14
2018-06-29T16:10:24.905Z,23.05
2018-06-29T16:12:53.289Z,22.94
2018-06-29T16:15:21.980Z,22.84
2018-06-29T16:17:50.151Z,22.78
2018-06-29T16:20:18.425Z,22.66
2018-06-29T16:22:46.696Z,22.49
2018-06-29T16:25:15.077Z,22.40
2018-06-29T16:27:43.333Z,22.33
2018-06-29T16:30:11.734Z,22.18
2018-06-29T16:32:39.901Z,22.17
2018-06-29T16:35:08.273Z,21.92
2018-06-29T16:37:36.689Z,21.84
2018-06-29T16:40:05.042Z,21.99
2018-06-29T16:42:33.410Z,21.96
2018-06-29T16:45:01.696Z,22.00
2018-06-29T16:47:29.621Z,21.90
2018-06-29T16:49:57.925Z,21.95
2018-06-29T16:52:26.302Z,22.07
2018-06-29T16:54:54.574Z,21.91
2018-06-29T16:57:22.853Z,21.86
2018-06-29T16:59:51.229Z,21.76
2018-06-29T17:02:19.505Z,21.82
2018-06-29T17:04:47.786Z,21.76
2018-06-29T17:07:16.070Z,21.76
2018-06-29T17:09:44.442Z,21.71
2018-06-29T17:12:12.768Z,21.69
2018-06-29T17:14:40.989Z,21.58
2018-06-29T17:17:09.584Z,21.48
2018-06-29T17:19:37.841Z,21.48
2018-06-29T17:22:06.126Z,21.49
2018-06-29T17:24:34.493Z,21.51
2018-06-29T17:27:02.770Z,21.51
2018-06-29T17:29:31.153Z,21.41
2018-06-29T17:31:59.417Z,21.34
2018-06-29T17:34:27.697Z,21.30
2018-06-29T17:36:56.010Z,21.27
2018-06-29T17:39:24.050Z,21.20
2018-06-29T17:41:52.431Z,21.19
2018-06-29T17:44:20.698Z,21.19
2018-06-29T17:46:49.190Z,21.24
2018-06-29T17:49:17.014Z,21.15
2018-06-29T17:51:45.322Z,21.12
2018-06-29T17:54:13.619Z,21.09
2018-06-29T17:56:42.064Z,21.12
2018-06-29T17:59:10.314Z,21.17
2018-06-29T18:01:38.625Z,21.13
2018-06-29T18:04:07.003Z,21.12
2018-06-29T18:06:35.337Z,21.11
2018-06-29T18:09:03.719Z,21.10
2018-06-29T18:11:31.943Z,20.97
2018-06-29T18:14:00.414Z,21.03
2018-06-29T18:16:28.688Z,21.02
2018-06-29T18:18:56.893Z,20.94
2018-06-29T18:21:25.238Z,20.91
2018-06-29T18:23:53.614Z,20.86
2018-06-29T18:26:21.490Z,20.82
2018-06-29T18:28:49.800Z,20.76
2018-06-29T18:31:18.282Z,20.76
2018-06-29T18:33:46.255Z,20.77
2018-06-29T18:36:14.694Z,20.68
2018-06-29T18:38:43.056Z,20.69
2018-06-29T18:41:11.756Z,20.74
2018-06-29T18:43:40.157Z,20.77
2018-06-29T18:46:08.518Z,20.71
2018-06-29T18:48:36.777Z,20.69
2018-06-29T18:51:05.062Z,20.62
2018-06-29T18:53:33.439Z,20.67
2018-06-29T18:56:01.811Z,20.62
2018-06-29T18:58:30.344Z,20.62
2018-06-29T19:00:58.566Z,20.62
2018-06-29T19:03:27.040Z,20.61
2018-06-29T19:05:55.258Z,20.59
2018-06-29T19:08:23.502Z,20.57
2018-06-29T19:10:51.675Z,20.63
2018-06-29T19:13:19.566Z,20.33
2018-06-29T19:15:47.806Z,20.39
2018-06-29T19:18:16.081Z,20.41
2018-06-29T19:20:43.998Z,20.29
2018-06-29T19:23:12.226Z,20.31
2018-06-29T19:25:40.506Z,20.38
2018-06-29T19:28:08.790Z,20.34
2018-06-29T19:30:36.940Z,20.32
2018-06-29T19:33:05.462Z,20.29
2018-06-29T19:35:33.703Z,20.28
2018-06-29T19:38:02.146Z,20.26
2018-06-29T19:40:30.371Z,20.30
2018-06-29T19:42:58.665Z,20.23
2018-06-29T19:45:26.860Z,20.32
2018-06-29T19:47:55.068Z,20.30
2018-06-29T19:50:23.354Z,20.25
2018-06-29T19:52:51.882Z,20.27
2018-06-29T19:55:20.151Z,20.22
2018-06-29T19:57:48.398Z,20.24
2018-06-29T20:00:16.762Z,20.13
2018-06-29T20:02:45.192Z,20.08
2018-06-29T20:05:13.543Z,20.10
2018-06-29T20:07:41.918Z,20.08
2018-06-29T20:10:10.283Z,20.11
2018-06-29T20:12:38.763Z,20.13
2018-06-29T20:15:07.986Z,19.99
2018-06-29T20:17:36.329Z,20.00
2018-06-29T20:20:05.228Z,19.99
2018-06-29T20:22:33.497Z,20.06
2018-06-29T20:25:01.805Z,19.91
2018-06-29T20:27:29.938Z,19.81
2018-06-29T20:29:58.329Z,19.88
2018-06-29T20:32:26.630Z,19.97
2018-06-29T20:34:54.973Z,19.82
2018-06-29T20:37:23.215Z,19.98
2018-06-29T20:39:51.456Z,20.10
2018-06-29T20:42:19.602Z,20.01
2018-06-29T20:44:47.465Z,19.99
2018-06-29T20:47:15.769Z,19.90
2018-06-29T20:49:44.118Z,19.86
2018-06-29T20:52:12.285Z,19.77
2018-06-29T20:54:40.772Z,19.69
2018-06-29T20:57:09.026Z,19.69
2018-06-29T20:59:37.409Z,19.73
2018-06-29T21:02:05.910Z,19.78
2018-06-29T21:04:34.238Z,19.84
2018-06-29T21:07:02.557Z,19.93
2018-06-29T21:09:30.713Z,19.96
2018-06-29T21:11:59.254Z,19.91
2018-06-29T21:14:27.443Z,19.81
2018-06-29T21:16:55.663Z,19.81
2018-06-29T21:19:23.833Z,19.76
2018-06-29T21:21:52.312Z,19.74
2018-06-29T21:24:20.177Z,19.78
2018-06-29T21:26:48.486Z,19.75
2018-06-29T21:29:16.622Z,19.68
2018-06-29T21:31:44.806Z,19.78
2018-06-29T21:34:13.032Z,19.82
2018-06-29T21:36:41.342Z,19.72
2018-06-29T21:39:10.694Z,19.75
2018-06-29T21:41:38.826Z,19.78
2018-06-29T21:44:07.302Z,19.76
2018-06-29T21:46:36.326Z,19.73
2018-06-29T21:49:04.905Z,19.64
2018-06-29T21:51:33.192Z,19.62
2018-06-29T21:54:01.626Z,19.56
2018-06-29T21:56:29.937Z,19.59
2018-06-29T21:58:58.174Z,19.64
2018-06-29T22:01:26.662Z,19.53
2018-06-29T22:03:54.866Z,19.51
2018-06-29T22:06:23.206Z,19.48
2018-06-29T22:08:51.374Z,19.49
2018-06-29T22:11:19.680Z,19.44
2018-06-29T22:13:48.042Z,19.37
2018-06-29T22:16:16.455Z,19.45
2018-06-29T22:18:44.711Z,19.38
2018-06-29T22:21:13.165Z,19.43
2018-06-29T22:23:41.541Z,19.59
2018-06-29T22:26:09.417Z,19.63
2018-06-29T22:28:37.685Z,19.63
2018-06-29T22:31:06.215Z,19.49
2018-06-29T22:33:34.133Z,19.19
2018-06-29T22:36:02.518Z,19.21
2018-06-29T22:38:30.821Z,19.36
2018-06-29T22:40:59.161Z,19.33
2018-06-29T22:43:27.346Z,19.41
2018-06-29T22:45:55.748Z,19.45
2018-06-29T22:48:23.886Z,19.43
2018-06-29T22:50:52.274Z,19.36
2018-06-29T22:53:20.476Z,19.28
2018-06-29T22:55:48.813Z,19.21
2018-06-29T22:58:17.095Z,19.21
2018-06-29T23:00:45.610Z,19.09
2018-06-29T23:03:13.958Z,19.24
2018-06-29T23:05:42.222Z,19.29
2018-06-29T23:08:11.173Z,19.29
2018-06-29T23:10:39.730Z,19.29
2018-06-29T23:13:08.905Z,19.37
2018-06-29T23:15:37.407Z,19.41
2018-06-29T23:18:05.887Z,19.49
2018-06-29T23:20:33.996Z,19.39
2018-06-29T23:23:02.292Z,19.21
2018-06-29T23:25:30.714Z,19.14
2018-06-29T23:27:58.953Z,19.23
2018-06-29T23:30:27.229Z,19.29
2018-06-29T23:32:55.437Z,19.36
2018-06-29T23:35:23.779Z,19.29
2018-06-29T23:37:51.949Z,19.42
2018-06-29T23:40:20.357Z,19.35
2018-06-29T23:42:48.810Z,19.34
2018-06-29T23:45:17.294Z,19.38
2018-06-29T23:47:45.725Z,19.37
2018-06-29T23:50:14.054Z,19.38
2018-06-29T23:52:42.425Z,19.44
2018-06-29T23:55:10.894Z,19.49
2018-06-29T23:57:39.220Z,19.40
